Decoded Metar for LESB (Son Bonet in SPAIN) (IATA:N/A) | Meteo·Mobile Aviation Weather
aviador You're here:

LESB Decoded Metar

Son Bonet in SPAIN
Report Time2019-07-24 05:00:00
UTC Time2019-07-24 05:15:30
Flight Rules vfr VFR
Wind350° at 05 kt
W.Decomp.*RWY 06: 1.7 kt HW 4.7 kt LCW
Visibility9999 m
Phenomena:N/A
Clouds:N/A
Expected CloudBase > 3,600 ft AGL from Temp-Dew spread
CeilingNone
Temp23°C (ISA +8)
Dew Point14°C (57% RH)
AAT22.5°C
QNH1017 hPa
Density Alt1,204 ft
Elevation157 ft
Report Wrong Elevation
Raw Report
METAR LESB 240500Z AUTO 35005KT CAVOK 23/14 Q1017=

Extra information for LESB:More info

Airport Information Weather charts Add Link Nearby Venues Social comments